Industrial Dart — V2DE6 — position and weather

sailwx.info

Track history (hours):
 
Tides and Currents Weather Stations Pressure Air Temp Water Temp Dewpoint Dewpoint Depression Visibility Wind Speed Wind Dir Waves Ship Positions

Industrial Dart

Last reported at 2017-Nov-20 00:30 UTC. Time now 2017-Nov-21 17:45 UTC.
Position N 35°60' W 005°24'.

Length 120 m; draft 6 m.

Type: Ship. MMSI: 305187000.

Date/timePositionNaut miles runAvg speedWind from/ knotsBaromVisibWave heightAir tempDewpointWater temp
2017-Nov-20 00:30N 35°60' W 005°24'715.0
2017-Nov-20 00:01N 36°02' W 005°15'  
2017-Nov-17 09:52N 36°57' E 013°40'813.9
2017-Nov-17 09:19N 36°52' E 013°47'713.9
2017-Nov-17 08:51N 36°48' E 013°54'513.7
2017-Nov-17 08:30N 36°45' E 013°58'1213.7
2017-Nov-17 07:39N 36°39' E 014°10'213.6
2017-Nov-17 07:30N 36°38' E 014°13'713.5
2017-Nov-17 07:00N 36°35' E 014°20'713.2
2017-Nov-17 06:30N 36°32' E 014°27'713.2
2017-Nov-17 05:57N 36°30' E 014°36'  
Track history (hours):
 
Tides and Currents Weather Stations Pressure Air Temp Water Temp Dewpoint Dewpoint Depression Visibility Wind Speed Wind Dir Waves Ship Positions

Industrial Dart

Last reported at 2017-Nov-20 00:30 UTC. Time now 2017-Nov-21 17:45 UTC.
Position N 35°60' W 005°24'.

Length 120 m; draft 6 m.

Type: Ship. MMSI: 305187000.

Date/timePositionNaut miles runAvg speedWind from/ knotsBaromVisibWave heightAir tempDewpointWater temp
2017-Nov-20 00:30N 35°60' W 005°24'715.0
2017-Nov-20 00:01N 36°02' W 005°15'  
2017-Nov-17 09:52N 36°57' E 013°40'813.9
2017-Nov-17 09:19N 36°52' E 013°47'713.9
2017-Nov-17 08:51N 36°48' E 013°54'513.7
2017-Nov-17 08:30N 36°45' E 013°58'1213.7
2017-Nov-17 07:39N 36°39' E 014°10'213.6
2017-Nov-17 07:30N 36°38' E 014°13'713.5
2017-Nov-17 07:00N 36°35' E 014°20'713.2
2017-Nov-17 06:30N 36°32' E 014°27'713.2
2017-Nov-17 05:57N 36°30' E 014°36'  

Dump ship's entire track history